Terminal Aerodrome Forecast
Issued by NWS North Platte, NE

Home | Current Version | Previous Version | Text Only | Print | Product List | Glossary Off
Versions: 1 2 3 4 5 6 7 8 9 10 11

322
FTUS43 KLBF 202320
TAFVTN
TAF
KVTN 202320Z 2100/2124 02011KT P6SM SCT200
     FM210300 05007KT P6SM FEW150
     FM210500 08007KT P6SM SCT200
     FM211300 10008KT P6SM BKN100
     FM211700 11012G18KT P6SM BKN090=

USA.gov is the U.S. government's official web portal to all federal, state and local government web resources and services.